Time;durP1;ratioP1;P1;durP2;ratioP2;P2;SDS_P1;SDS_P2;PMS_P1;PMS_P2;Temp;Humidity;BMP_temperature;BMP_pressure;BME280_temperature;BME280_humidity;BME280_pressure;Samples;Min_cycle;Max_cycle;Signal;HPM_P1;HPM_P2
2021/06/10 00:02:26;;;;;;;4.20;3.03;;;24.60;44.50;;;;;;6236200;27;80785;-63
2021/06/10 00:05:26;;;;;;;4.28;2.90;;;24.60;44.60;;;;;;6241038;27;80020;-62
2021/06/10 00:08:27;;;;;;;5.60;3.30;;;24.60;44.60;;;;;;6234808;27;80362;-62
2021/06/10 00:11:27;;;;;;;6.82;2.90;;;24.60;44.70;;;;;;6233873;27;81738;-62
2021/06/10 00:14:28;;;;;;;3.53;3.00;;;24.60;44.90;;;;;;6231534;27;81378;-62
2021/06/10 00:17:28;;;;;;;5.32;3.00;;;24.60;44.70;;;;;;6232598;27;80453;-62
2021/06/10 00:20:29;;;;;;;5.72;3.15;;;24.60;44.80;;;;;;6231629;27;81506;-63
2021/06/10 00:23:29;;;;;;;8.35;3.92;;;24.60;45.10;;;;;;6231698;27;80327;-62
2021/06/10 00:26:30;;;;;;;8.23;3.47;;;24.60;45.10;;;;;;6233632;27;80980;-63
2021/06/10 00:29:30;;;;;;;10.27;4.45;;;24.50;45.10;;;;;;6235714;27;82875;-62
2021/06/10 00:32:31;;;;;;;6.75;4.25;;;24.60;45.30;;;;;;6233287;27;80274;-62
2021/06/10 00:35:31;;;;;;;8.35;3.38;;;24.60;45.30;;;;;;6233708;27;80354;-62
2021/06/10 00:38:32;;;;;;;6.50;3.97;;;24.50;45.20;;;;;;6232080;27;81470;-63
2021/06/10 00:41:32;;;;;;;4.95;3.92;;;24.50;45.20;;;;;;6233038;27;81340;-63
2021/06/10 00:44:33;;;;;;;6.07;4.40;;;24.50;45.30;;;;;;6232154;27;83257;-63
2021/06/10 00:47:33;;;;;;;10.15;4.60;;;24.50;45.20;;;;;;6233370;27;80451;-63
2021/06/10 00:50:34;;;;;;;7.35;4.30;;;24.50;45.30;;;;;;6234662;27;80553;-62
2021/06/10 00:53:34;;;;;;;8.18;4.22;;;24.40;45.30;;;;;;6230387;27;81412;-62
2021/06/10 00:56:35;;;;;;;6.75;4.25;;;24.40;45.30;;;;;;6230396;27;80828;-63
2021/06/10 00:59:35;;;;;;;5.88;4.15;;;24.40;45.80;;;;;;6221803;27;80535;-63
2021/06/10 01:02:36;;;;;;;10.68;4.95;;;24.40;45.20;;;;;;6232471;27;81574;-63
2021/06/10 01:05:37;;;;;;;7.78;4.28;;;24.40;45.20;;;;;;6230486;27;83587;-62
2021/06/10 01:08:37;;;;;;;9.32;5.18;;;24.40;45.20;;;;;;6232726;27;82059;-62
2021/06/10 01:11:38;;;;;;;8.13;4.82;;;24.40;45.20;;;;;;6230549;27;80253;-62
2021/06/10 01:14:39;;;;;;;10.57;4.82;;;24.40;45.20;;;;;;6233412;27;80834;-63
2021/06/10 01:17:46;;;;;;;8.00;4.70;;;24.40;45.00;;;;;;6233528;27;82808;-63
2021/06/10 01:20:47;;;;;;;7.28;4.57;;;24.40;45.00;;;;;;6234562;27;80498;-63
2021/06/10 01:23:47;;;;;;;13.00;5.63;;;24.40;45.00;;;;;;6206364;27;83341;-63
2021/06/10 01:26:48;;;;;;;9.77;5.45;;;24.40;45.10;;;;;;6230163;27;80334;-63
2021/06/10 01:29:48;;;;;;;11.73;4.97;;;24.40;45.40;;;;;;6231471;27;80688;-63
2021/06/10 01:32:49;;;;;;;11.50;4.70;;;24.30;45.00;;;;;;6231042;27;81813;-63
2021/06/10 01:35:49;;;;;;;10.30;4.97;;;24.40;45.00;;;;;;6234485;27;81316;-62
2021/06/10 01:38:50;;;;;;;10.52;5.13;;;24.40;45.10;;;;;;6233183;27;80312;-63
2021/06/10 01:41:50;;;;;;;9.63;5.05;;;24.30;45.00;;;;;;6242624;28;89693;-64
2021/06/10 01:44:51;;;;;;;10.65;5.13;;;24.40;45.10;;;;;;6232584;27;80502;-63
2021/06/10 01:47:51;;;;;;;12.10;5.32;;;24.30;45.00;;;;;;6244311;27;81146;-62
2021/06/10 01:50:52;;;;;;;11.23;5.07;;;24.30;45.00;;;;;;6232465;27;80395;-62
2021/06/10 01:53:52;;;;;;;10.48;5.35;;;24.30;45.00;;;;;;6239601;27;81670;-63
2021/06/10 01:56:53;;;;;;;10.32;5.53;;;24.30;45.00;;;;;;6235906;27;80232;-63
2021/06/10 01:59:55;;;;;;;7.35;4.60;;;24.30;45.00;;;;;;6239264;27;81963;-64
2021/06/10 02:02:55;;;;;;;10.73;5.15;;;24.30;45.10;;;;;;6230813;28;89460;-62
2021/06/10 02:06:00;;;;;;;9.93;5.65;;;24.30;45.20;;;;;;6227781;27;80841;-62
2021/06/10 02:09:00;;;;;;;12.18;5.38;;;24.30;45.10;;;;;;6238067;27;81019;-63
2021/06/10 02:12:01;;;;;;;9.18;5.38;;;24.30;45.30;;;;;;6238702;27;80301;-63
2021/06/10 02:15:01;;;;;;;9.52;5.35;;;24.30;45.40;;;;;;6243939;27;80315;-63
2021/06/10 02:18:01;;;;;;;9.75;6.43;;;24.30;45.50;;;;;;6241451;27;80414;-64
2021/06/10 02:21:02;;;;;;;13.25;6.15;;;24.30;45.40;;;;;;6237352;27;81619;-63
2021/06/10 02:24:02;;;;;;;11.20;6.47;;;24.30;45.50;;;;;;6235242;27;81991;-62
2021/06/10 02:27:03;;;;;;;9.27;5.95;;;24.30;45.60;;;;;;6227580;27;80758;-63
2021/06/10 02:30:03;;;;;;;10.18;6.65;;;24.30;45.60;;;;;;6237745;27;80335;-63
2021/06/10 02:33:04;;;;;;;9.23;6.38;;;24.30;45.60;;;;;;6243652;27;80950;-63
2021/06/10 02:36:04;;;;;;;10.25;6.60;;;24.20;45.60;;;;;;6236755;27;81070;-63
2021/06/10 02:39:05;;;;;;;12.07;7.78;;;24.30;45.60;;;;;;6247806;27;80769;-63
2021/06/10 02:42:05;;;;;;;14.48;6.53;;;24.20;45.50;;;;;;6246472;27;80511;-62
2021/06/10 02:45:06;;;;;;;16.33;7.00;;;24.20;45.60;;;;;;6247074;27;80321;-62
2021/06/10 02:48:06;;;;;;;14.73;6.65;;;24.20;45.60;;;;;;6246840;27;80280;-62
2021/06/10 02:51:07;;;;;;;7.32;6.13;;;24.20;45.60;;;;;;6246772;27;80291;-62
2021/06/10 02:54:07;;;;;;;11.75;6.95;;;24.20;45.60;;;;;;6246208;27;81595;-62
2021/06/10 02:57:08;;;;;;;14.32;7.15;;;24.20;45.70;;;;;;6234356;27;82920;-62
2021/06/10 03:00:09;;;;;;;13.02;6.55;;;24.10;45.60;;;;;;6244117;27;80130;-63
2021/06/10 03:03:09;;;;;;;11.40;6.20;;;24.20;45.70;;;;;;6245479;27;80712;-62
2021/06/10 03:06:10;;;;;;;10.50;6.38;;;24.20;45.70;;;;;;6246640;27;80463;-63
2021/06/10 03:09:11;;;;;;;8.10;5.90;;;24.20;45.80;;;;;;6245373;27;81530;-63
2021/06/10 03:12:11;;;;;;;10.77;6.15;;;24.20;46.30;;;;;;6244918;27;80500;-63
2021/06/10 03:15:12;;;;;;;12.63;6.57;;;24.20;45.90;;;;;;6247332;27;81023;-63
2021/06/10 03:18:12;;;;;;;10.93;6.68;;;24.20;46.00;;;;;;6241753;27;81605;-64
2021/06/10 03:21:13;;;;;;;9.60;6.55;;;24.20;46.10;;;;;;6247150;27;80380;-64
2021/06/10 03:24:13;;;;;;;7.60;5.28;;;24.20;46.40;;;;;;6235044;27;80814;-64
2021/06/10 03:27:14;;;;;;;11.18;6.82;;;24.20;46.60;;;;;;6233263;27;81044;-64
2021/06/10 03:30:14;;;;;;;14.32;7.18;;;24.20;46.40;;;;;;6243858;27;80533;-66
2021/06/10 03:33:15;;;;;;;9.48;6.65;;;24.20;46.60;;;;;;6243918;27;80721;-64
2021/06/10 03:36:15;;;;;;;10.90;7.05;;;24.20;47.00;;;;;;6242662;27;87816;-64
2021/06/10 03:39:16;;;;;;;14.20;6.95;;;24.30;47.00;;;;;;6243119;27;81793;-64
2021/06/10 03:42:16;;;;;;;12.65;7.15;;;24.20;46.60;;;;;;6241468;27;80980;-64
2021/06/10 03:45:17;;;;;;;11.20;6.63;;;24.20;46.50;;;;;;6246094;27;80661;-64
2021/06/10 03:48:17;;;;;;;10.40;7.00;;;24.20;47.20;;;;;;6245676;27;81717;-65
2021/06/10 03:51:18;;;;;;;12.77;7.40;;;24.30;46.60;;;;;;6238027;27;80719;-64
2021/06/10 03:54:22;;;;;;;17.08;7.55;;;24.30;46.80;;;;;;6220441;27;80377;-67
2021/06/10 03:57:22;;;;;;;12.00;8.10;;;24.20;46.60;;;;;;6220822;27;81272;-65
2021/06/10 04:00:23;;;;;;;18.00;7.70;;;24.20;46.60;;;;;;6244045;27;80396;-65
2021/06/10 04:03:23;;;;;;;14.88;7.65;;;24.20;46.80;;;;;;6246840;27;80672;-65
2021/06/10 04:06:30;;;;;;;10.95;6.90;;;24.20;46.60;;;;;;6242994;27;83887;-64
2021/06/10 04:09:31;;;;;;;10.52;7.28;;;24.30;46.90;;;;;;6230302;27;80368;-64
2021/06/10 04:12:31;;;;;;;15.77;7.40;;;24.30;47.10;;;;;;6234077;27;80279;-65
2021/06/10 04:15:32;;;;;;;12.90;7.53;;;24.30;48.10;;;;;;6232696;27;81154;-65
2021/06/10 04:18:32;;;;;;;16.00;8.65;;;24.30;48.10;;;;;;6228072;27;80395;-64
2021/06/10 04:21:33;;;;;;;12.43;6.85;;;24.40;48.10;;;;;;6234761;27;81351;-63
2021/06/10 04:24:33;;;;;;;20.70;8.20;;;24.40;48.00;;;;;;6229168;27;80428;-64
2021/06/10 04:27:34;;;;;;;12.23;7.40;;;24.40;47.90;;;;;;6242101;27;80583;-65
2021/06/10 04:30:34;;;;;;;15.55;7.05;;;24.40;47.50;;;;;;6232424;27;80570;-64
2021/06/10 04:33:35;;;;;;;14.43;7.20;;;24.40;47.90;;;;;;6231176;27;83159;-66
2021/06/10 04:36:35;;;;;;;17.35;8.00;;;24.40;47.40;;;;;;6245252;27;80552;-65
2021/06/10 04:39:36;;;;;;;14.32;7.72;;;24.40;47.70;;;;;;6241710;27;81420;-65
2021/06/10 04:42:36;;;;;;;16.27;8.18;;;24.50;47.50;;;;;;6229057;27;82718;-63
2021/06/10 04:45:37;;;;;;;12.48;7.72;;;24.50;47.90;;;;;;6238047;27;81075;-64
2021/06/10 04:48:38;;;;;;;15.27;7.97;;;24.40;47.90;;;;;;6234393;27;80576;-64
2021/06/10 04:51:38;;;;;;;12.18;7.30;;;24.50;47.80;;;;;;6234639;27;80888;-63
2021/06/10 04:54:39;;;;;;;11.00;7.47;;;24.50;47.50;;;;;;6243993;27;80810;-63
2021/06/10 04:57:39;;;;;;;11.75;6.78;;;24.50;47.70;;;;;;6231618;27;80496;-63
2021/06/10 05:00:40;;;;;;;10.45;6.78;;;24.50;47.70;;;;;;6229498;27;80609;-63
2021/06/10 05:03:40;;;;;;;11.73;7.38;;;24.50;48.30;;;;;;6231512;27;82697;-65
2021/06/10 05:06:41;;;;;;;12.15;7.28;;;24.60;48.20;;;;;;6230926;27;80843;-63
2021/06/10 05:09:41;;;;;;;9.68;6.72;;;24.60;48.30;;;;;;6237917;27;80852;-64
2021/06/10 05:12:42;;;;;;;10.15;6.25;;;24.60;48.90;;;;;;6228820;27;81412;-64
2021/06/10 05:15:42;;;;;;;12.35;7.00;;;24.60;48.30;;;;;;6226835;27;81467;-63
2021/06/10 05:18:46;;;;;;;8.77;5.88;;;24.60;48.30;;;;;;6245192;27;80324;-66
2021/06/10 05:21:46;;;;;;;10.15;6.38;;;24.60;47.90;;;;;;6241609;27;80896;-64
2021/06/10 05:24:47;;;;;;;11.60;6.57;;;24.60;48.10;;;;;;6244678;27;80735;-66
2021/06/10 05:27:47;;;;;;;12.35;6.78;;;24.60;48.00;;;;;;6231500;28;81152;-66
2021/06/10 05:30:48;;;;;;;12.57;6.70;;;24.60;48.10;;;;;;6229469;27;80589;-64
2021/06/10 05:33:48;;;;;;;9.63;6.30;;;24.60;47.50;;;;;;6230552;27;81898;-66
2021/06/10 05:36:49;;;;;;;17.67;6.68;;;24.60;47.90;;;;;;6227736;27;81038;-63
2021/06/10 05:39:49;;;;;;;11.27;6.78;;;24.70;47.80;;;;;;6251014;27;80533;-64
2021/06/10 05:42:50;;;;;;;10.25;6.38;;;24.60;47.40;;;;;;6222287;28;83758;-64
2021/06/10 05:45:50;;;;;;;19.73;6.32;;;24.60;48.30;;;;;;6229747;27;81735;-64
2021/06/10 05:48:51;;;;;;;10.85;6.30;;;24.70;48.10;;;;;;6237467;27;84985;-64
2021/06/10 05:51:52;;;;;;;14.23;6.53;;;24.70;48.00;;;;;;6232272;27;81594;-63
2021/06/10 05:54:52;;;;;;;14.40;6.72;;;24.70;47.70;;;;;;6229400;27;80416;-65
2021/06/10 05:57:53;;;;;;;11.57;6.47;;;24.70;47.30;;;;;;6228770;27;81944;-64
2021/06/10 06:00:53;;;;;;;12.15;6.40;;;24.70;48.00;;;;;;6236952;27;80960;-64
2021/06/10 06:03:54;;;;;;;10.85;6.45;;;24.70;47.70;;;;;;6242474;27;80897;-64
2021/06/10 06:06:54;;;;;;;9.73;6.45;;;24.70;48.10;;;;;;6236580;27;81304;-65
2021/06/10 06:09:55;;;;;;;12.90;6.18;;;24.70;47.80;;;;;;6235128;27;80742;-64
2021/06/10 06:12:58;;;;;;;13.70;6.55;;;24.70;48.00;;;;;;6232542;28;83613;-64
2021/06/10 06:15:58;;;;;;;11.07;6.32;;;24.70;47.40;;;;;;6231326;27;81326;-64
2021/06/10 06:19:01;;;;;;;10.07;5.40;;;24.70;48.00;;;;;;6230695;27;83168;-63
2021/06/10 06:22:02;;;;;;;15.20;6.35;;;24.70;47.80;;;;;;6226660;28;81921;-64
2021/06/10 06:25:02;;;;;;;13.32;7.00;;;24.70;47.50;;;;;;6235936;27;81281;-63
2021/06/10 06:28:03;;;;;;;8.73;5.68;;;24.70;47.40;;;;;;6233642;27;80618;-63
2021/06/10 06:31:03;;;;;;;10.20;6.28;;;24.70;47.30;;;;;;6234086;27;80944;-63
2021/06/10 06:34:04;;;;;;;11.77;5.95;;;24.70;47.50;;;;;;6232365;27;80573;-63
2021/06/10 06:37:05;;;;;;;9.65;6.03;;;24.70;47.10;;;;;;6228726;27;81348;-64
2021/06/10 06:40:05;;;;;;;12.43;6.50;;;24.70;46.90;;;;;;6234004;27;81396;-64
2021/06/10 06:43:06;;;;;;;11.10;6.38;;;24.70;47.50;;;;;;6234921;27;81706;-63
2021/06/10 06:46:08;;;;;;;11.65;6.10;;;24.70;47.60;;;;;;6235633;27;80795;-64
2021/06/10 06:49:09;;;;;;;10.38;5.20;;;24.70;47.40;;;;;;6234451;27;80792;-64
2021/06/10 06:52:09;;;;;;;7.90;5.57;;;24.70;47.70;;;;;;6239660;27;80486;-64
2021/06/10 06:55:10;;;;;;;14.23;6.05;;;24.70;47.40;;;;;;6232225;27;80939;-65
2021/06/10 06:58:11;;;;;;;11.90;5.97;;;24.70;47.10;;;;;;6224964;27;80559;-65
2021/06/10 07:01:11;;;;;;;8.57;5.75;;;24.70;46.90;;;;;;6232847;28;85245;-64
2021/06/10 07:04:12;;;;;;;11.75;6.07;;;24.70;46.50;;;;;;6233157;27;80450;-65
2021/06/10 07:07:12;;;;;;;8.35;4.97;;;24.70;46.10;;;;;;6231336;27;80431;-64
2021/06/10 07:10:13;;;;;;;15.30;5.68;;;24.70;45.70;;;;;;6231695;27;80511;-65
2021/06/10 07:13:13;;;;;;;6.97;5.13;;;24.70;45.60;;;;;;6234445;27;83629;-64
2021/06/10 07:16:14;;;;;;;9.48;5.22;;;24.70;45.80;;;;;;6232647;27;80363;-64
2021/06/10 07:19:14;;;;;;;13.30;4.72;;;24.70;45.30;;;;;;6239277;27;80318;-64
2021/06/10 07:22:15;;;;;;;8.55;4.97;;;24.70;45.20;;;;;;6232956;27;80569;-64
2021/06/10 07:25:15;;;;;;;8.00;4.38;;;24.70;44.80;;;;;;6229803;27;83599;-64
2021/06/10 07:28:16;;;;;;;9.82;4.45;;;24.70;44.90;;;;;;6231460;27;80705;-65
2021/06/10 07:31:16;;;;;;;9.88;4.15;;;24.70;44.80;;;;;;6230681;27;84510;-64
2021/06/10 07:34:17;;;;;;;8.75;3.70;;;24.70;44.10;;;;;;6233902;27;80628;-64
2021/06/10 07:37:17;;;;;;;7.00;3.33;;;24.70;42.90;;;;;;6230394;27;80460;-65
2021/06/10 07:40:18;;;;;;;4.82;2.90;;;24.70;43.00;;;;;;6238565;27;80383;-64
2021/06/10 07:43:18;;;;;;;9.00;2.60;;;24.70;42.60;;;;;;6228533;27;81320;-64
2021/06/10 07:46:20;;;;;;;3.55;2.60;;;24.70;42.10;;;;;;6228694;27;81493;-65
2021/06/10 07:49:20;;;;;;;5.75;2.63;;;24.70;42.40;;;;;;6230870;27;80366;-63
2021/06/10 07:52:21;;;;;;;6.22;2.60;;;24.70;41.50;;;;;;6229317;27;80683;-64
2021/06/10 07:55:21;;;;;;;9.15;2.20;;;24.60;41.40;;;;;;6233075;27;91435;-63
2021/06/10 07:58:24;;;;;;;5.50;2.63;;;24.60;41.30;;;;;;6232989;27;80211;-65
2021/06/10 08:01:24;;;;;;;6.07;2.53;;;24.60;40.90;;;;;;6237068;27;81964;-64
2021/06/10 08:04:25;;;;;;;7.35;3.95;;;24.70;41.90;;;;;;6228567;27;81463;-65
2021/06/10 08:07:25;;;;;;;5.60;3.22;;;24.60;42.00;;;;;;6231461;27;84553;-65
2021/06/10 08:10:27;;;;;;;3.97;2.95;;;24.60;42.20;;;;;;6230652;27;80515;-65
2021/06/10 08:13:28;;;;;;;4.80;2.20;;;24.60;42.50;;;;;;6232190;27;82239;-65
2021/06/10 08:16:29;;;;;;;2.88;2.03;;;24.60;42.20;;;;;;6230650;27;81759;-65
2021/06/10 08:19:29;;;;;;;4.43;2.65;;;24.70;42.20;;;;;;6231835;27;81101;-65
2021/06/10 08:22:30;;;;;;;4.00;2.60;;;24.70;42.30;;;;;;6234609;27;80356;-66
2021/06/10 08:25:30;;;;;;;3.53;2.38;;;24.70;41.80;;;;;;6235227;27;80851;-65
2021/06/10 08:28:32;;;;;;;8.10;2.70;;;24.70;41.70;;;;;;6230589;27;80763;-65
2021/06/10 08:31:32;;;;;;;6.10;2.65;;;24.70;41.80;;;;;;6238159;27;80463;-65
2021/06/10 08:34:33;;;;;;;4.00;2.30;;;24.70;42.40;;;;;;6229941;27;83575;-64
2021/06/10 08:37:35;;;;;;;7.43;2.60;;;24.70;42.40;;;;;;6230820;27;81487;-64
2021/06/10 08:40:37;;;;;;;6.55;2.92;;;24.70;41.90;;;;;;6231839;27;80440;-65
2021/06/10 08:43:37;;;;;;;4.30;2.22;;;24.70;41.70;;;;;;6227138;27;82082;-65
2021/06/10 08:46:38;;;;;;;2.35;2.15;;;24.70;41.60;;;;;;6234034;27;81533;-65
2021/06/10 08:49:38;;;;;;;4.88;2.50;;;24.70;41.80;;;;;;6232498;27;81055;-65
2021/06/10 08:52:39;;;;;;;8.73;2.47;;;24.70;42.00;;;;;;6234790;27;81811;-64
2021/06/10 08:55:39;;;;;;;3.97;2.50;;;24.70;41.60;;;;;;6231944;27;81771;-64
2021/06/10 08:58:41;;;;;;;8.30;2.78;;;24.70;41.10;;;;;;6232752;27;80094;-65
2021/06/10 09:01:43;;;;;;;2.38;2.17;;;24.70;41.30;;;;;;6235440;27;80362;-65
2021/06/10 09:04:44;;;;;;;4.50;2.30;;;24.70;41.30;;;;;;6231314;27;80938;-64
2021/06/10 09:07:46;;;;;;;3.00;1.90;;;24.70;40.60;;;;;;6212216;28;83061;-65
2021/06/10 09:10:47;;;;;;;5.03;2.10;;;24.70;40.50;;;;;;6216994;28;80700;-64
2021/06/10 09:13:47;;;;;;;2.60;2.38;;;24.70;40.70;;;;;;6226903;27;80294;-63
2021/06/10 09:16:50;;;;;;;4.13;2.28;;;24.70;39.70;;;;;;6228519;27;81538;-66
2021/06/10 09:19:51;;;;;;;4.63;2.30;;;24.60;40.00;;;;;;6224247;27;80307;-65
2021/06/10 09:22:51;;;;;;;4.82;2.00;;;24.60;40.20;;;;;;6222930;27;82482;-66
2021/06/10 09:25:52;;;;;;;6.28;2.70;;;24.60;39.90;;;;;;6227241;27;82479;-64
2021/06/10 09:28:53;;;;;;;3.72;2.13;;;24.70;40.30;;;;;;6224074;27;81380;-65
2021/06/10 09:31:53;;;;;;;4.47;2.15;;;24.70;40.80;;;;;;6225779;27;80324;-66
2021/06/10 09:34:55;;;;;;;2.63;2.10;;;24.70;40.30;;;;;;6221212;27;80683;-64
2021/06/10 09:37:55;;;;;;;3.83;2.33;;;24.80;40.70;;;;;;6226933;27;80950;-66
2021/06/10 09:40:57;;;;;;;2.10;1.90;;;24.80;40.60;;;;;;6229049;27;80815;-64
2021/06/10 09:43:58;;;;;;;3.63;2.13;;;24.90;40.80;;;;;;6230133;27;80580;-65
2021/06/10 09:46:58;;;;;;;5.00;2.22;;;24.90;40.80;;;;;;6232843;27;80860;-64
2021/06/10 09:49:59;;;;;;;2.55;2.17;;;24.80;40.30;;;;;;6230644;27;81068;-64
2021/06/10 09:53:00;;;;;;;5.60;2.03;;;24.80;40.30;;;;;;6228482;27;80611;-65
2021/06/10 09:56:00;;;;;;;3.20;1.98;;;24.80;40.00;;;;;;6230169;27;81361;-65
2021/06/10 09:59:04;;;;;;;5.82;2.20;;;24.90;40.40;;;;;;6226813;27;80938;-65
2021/06/10 10:02:05;;;;;;;3.55;2.10;;;24.90;40.20;;;;;;6231555;27;80790;-66
2021/06/10 10:05:05;;;;;;;5.07;2.30;;;24.80;40.10;;;;;;6226216;27;81401;-65
2021/06/10 10:08:06;;;;;;;2.85;2.28;;;24.80;40.20;;;;;;6230935;27;80478;-64
2021/06/10 10:11:07;;;;;;;4.57;2.40;;;24.80;40.10;;;;;;6227889;27;82007;-65
2021/06/10 10:14:08;;;;;;;2.83;2.03;;;24.90;39.50;;;;;;6227897;27;80421;-65
2021/06/10 10:17:08;;;;;;;2.63;2.03;;;24.90;39.50;;;;;;6233459;27;80583;-65
2021/06/10 10:20:09;;;;;;;5.80;2.60;;;24.90;39.20;;;;;;6229281;27;81252;-65
2021/06/10 10:23:09;;;;;;;2.28;2.08;;;24.90;39.60;;;;;;6230466;27;81322;-65
2021/06/10 10:26:10;;;;;;;2.97;2.05;;;24.90;39.60;;;;;;6227665;28;81954;-64
2021/06/10 10:29:12;;;;;;;2.65;1.88;;;24.90;39.20;;;;;;6227550;27;80432;-64
2021/06/10 10:32:12;;;;;;;2.58;2.10;;;24.90;39.40;;;;;;6235066;27;80639;-64
2021/06/10 10:35:13;;;;;;;2.97;2.05;;;24.90;39.10;;;;;;6229546;27;80468;-63
2021/06/10 10:38:15;;;;;;;5.15;2.03;;;24.90;39.30;;;;;;6232631;27;80651;-64
2021/06/10 10:41:18;;;;;;;2.20;2.00;;;24.90;39.80;;;;;;6229052;27;81081;-63
2021/06/10 10:44:22;;;;;;;3.78;2.40;;;24.90;39.50;;;;;;6227450;27;80355;-64
2021/06/10 10:47:24;;;;;;;2.88;2.33;;;24.90;39.70;;;;;;6228435;27;80945;-63
2021/06/10 10:50:24;;;;;;;6.00;2.08;;;24.90;39.50;;;;;;6233680;27;80534;-64
2021/06/10 10:53:26;;;;;;;6.25;2.53;;;24.90;40.30;;;;;;6230997;27;81796;-64
2021/06/10 10:56:27;;;;;;;2.67;2.42;;;24.90;39.80;;;;;;6226924;27;84099;-64
2021/06/10 10:59:27;;;;;;;2.22;2.03;;;25.00;40.00;;;;;;6229836;27;86240;-64
2021/06/10 11:02:28;;;;;;;4.88;2.53;;;25.00;40.00;;;;;;6230951;27;81558;-64
2021/06/10 11:05:29;;;;;;;4.32;2.55;;;25.00;40.10;;;;;;6232813;27;81540;-63
2021/06/10 11:08:29;;;;;;;6.30;2.40;;;25.00;40.00;;;;;;6226269;27;81201;-65
2021/06/10 11:11:30;;;;;;;5.00;2.60;;;25.00;40.30;;;;;;6228179;27;80225;-66
2021/06/10 11:14:30;;;;;;;4.05;2.65;;;25.00;40.30;;;;;;6228379;27;81940;-65
2021/06/10 11:17:32;;;;;;;4.70;2.55;;;25.10;40.90;;;;;;6230809;28;84618;-65
2021/06/10 11:20:33;;;;;;;2.40;2.20;;;25.10;39.80;;;;;;6227661;27;80402;-65
2021/06/10 11:23:33;;;;;;;6.03;2.50;;;25.00;39.50;;;;;;6222188;27;80981;-66
2021/06/10 11:26:34;;;;;;;3.92;2.15;;;25.00;39.60;;;;;;6227856;27;80511;-64
2021/06/10 11:29:34;;;;;;;4.20;2.10;;;25.00;39.90;;;;;;6229951;27;82389;-65
2021/06/10 11:32:35;;;;;;;2.15;2.00;;;25.00;39.60;;;;;;6227951;27;80887;-65
2021/06/10 11:35:35;;;;;;;3.40;2.40;;;25.00;40.10;;;;;;6232026;27;81457;-65
2021/06/10 11:38:36;;;;;;;2.50;1.95;;;25.00;39.60;;;;;;6229391;27;80481;-64
2021/06/10 11:41:37;;;;;;;2.20;2.00;;;25.10;40.00;;;;;;6230749;27;81224;-63
2021/06/10 11:44:37;;;;;;;2.58;2.30;;;25.10;39.60;;;;;;6223926;27;82218;-62
2021/06/10 11:47:39;;;;;;;4.95;2.35;;;25.10;39.70;;;;;;6230335;28;80688;-64
2021/06/10 11:50:39;;;;;;;3.38;2.10;;;25.00;39.40;;;;;;6224498;27;81071;-64
2021/06/10 11:53:40;;;;;;;2.35;1.80;;;25.10;39.70;;;;;;6226957;27;81371;-64
2021/06/10 11:56:40;;;;;;;3.80;2.00;;;25.10;39.60;;;;;;6230211;27;80533;-65
2021/06/10 11:59:41;;;;;;;2.70;2.00;;;25.10;39.90;;;;;;6232909;27;81917;-64
2021/06/10 12:02:42;;;;;;;1.90;1.70;;;25.10;39.20;;;;;;6225293;27;80731;-64
2021/06/10 12:05:42;;;;;;;1.92;1.75;;;25.10;39.30;;;;;;6219961;27;81191;-65
2021/06/10 12:08:45;;;;;;;4.90;1.90;;;25.10;39.60;;;;;;6229576;27;81423;-65
2021/06/10 12:11:45;;;;;;;3.33;1.73;;;25.10;38.80;;;;;;6224717;27;82065;-65
2021/06/10 12:14:46;;;;;;;2.70;1.70;;;25.10;39.30;;;;;;6231106;27;80118;-64
2021/06/10 12:17:46;;;;;;;1.75;1.65;;;25.10;39.60;;;;;;6227216;27;81627;-64
2021/06/10 12:20:47;;;;;;;2.53;1.70;;;25.20;39.20;;;;;;6236115;27;80280;-63
2021/06/10 12:23:47;;;;;;;2.25;2.05;;;25.10;39.30;;;;;;6230687;27;81816;-63
2021/06/10 12:26:48;;;;;;;1.70;1.60;;;25.10;38.90;;;;;;6231593;27;80533;-63
2021/06/10 12:29:48;;;;;;;1.73;1.63;;;25.10;38.80;;;;;;6237394;27;80857;-64
2021/06/10 12:32:49;;;;;;;2.45;1.83;;;25.10;38.30;;;;;;6227856;27;80895;-64
2021/06/10 12:35:49;;;;;;;3.10;1.80;;;25.10;38.30;;;;;;6227486;27;83173;-63
2021/06/10 12:38:50;;;;;;;4.18;2.20;;;25.10;38.20;;;;;;6231337;27;81576;-64
2021/06/10 12:41:50;;;;;;;2.35;2.10;;;25.10;38.00;;;;;;6227275;27;80877;-64
2021/06/10 12:44:51;;;;;;;1.95;1.77;;;25.10;38.00;;;;;;6239509;27;80464;-64
2021/06/10 12:47:51;;;;;;;1.55;1.30;;;25.10;37.90;;;;;;6230904;27;80476;-64
2021/06/10 12:50:52;;;;;;;1.83;1.73;;;25.10;37.70;;;;;;6231691;27;80679;-64
2021/06/10 12:53:52;;;;;;;4.53;1.48;;;25.10;38.10;;;;;;6233508;27;81579;-64
2021/06/10 12:56:53;;;;;;;3.90;1.92;;;25.10;37.70;;;;;;6236810;27;80549;-67
2021/06/10 12:59:54;;;;;;;3.53;2.33;;;25.10;38.10;;;;;;6232388;27;80687;-64
2021/06/10 13:02:54;;;;;;;10.73;2.05;;;25.10;38.20;;;;;;6231197;27;80471;-63
2021/06/10 13:05:55;;;;;;;8.32;2.08;;;25.10;38.90;;;;;;6232293;27;81368;-64
2021/06/10 13:08:55;;;;;;;5.75;2.17;;;25.10;39.30;;;;;;6221708;27;81937;-65
2021/06/10 13:11:56;;;;;;;2.53;2.05;;;25.10;39.70;;;;;;6225288;27;80208;-64
2021/06/10 13:14:56;;;;;;;2.65;1.77;;;25.20;39.50;;;;;;6227914;27;80905;-63
2021/06/10 13:17:57;;;;;;;2.85;2.00;;;25.20;40.10;;;;;;6230009;27;80421;-64
2021/06/10 13:20:58;;;;;;;2.10;1.90;;;25.20;40.40;;;;;;6228084;27;80452;-63
2021/06/10 13:23:58;;;;;;;2.55;2.10;;;25.10;40.50;;;;;;6230813;27;80927;-64
2021/06/10 13:26:59;;;;;;;3.75;1.63;;;25.10;40.90;;;;;;6225820;27;81037;-64
2021/06/10 13:30:01;;;;;;;2.17;1.65;;;25.10;41.10;;;;;;6223885;27;80845;-64
2021/06/10 13:33:01;;;;;;;3.33;2.10;;;25.20;41.60;;;;;;6223287;27;87123;-63
2021/06/10 13:36:06;;;;;;;3.08;1.70;;;25.20;41.50;;;;;;6226648;27;80267;-63
2021/06/10 13:39:06;;;;;;;7.30;2.40;;;25.30;41.70;;;;;;6227749;27;83403;-64
2021/06/10 13:42:07;;;;;;;8.02;2.85;;;25.30;41.40;;;;;;6225515;27;80599;-64
2021/06/10 13:45:07;;;;;;;19.73;5.43;;;25.30;41.50;;;;;;6225696;28;80894;-64
2021/06/10 13:48:08;;;;;;;23.40;8.13;;;25.30;41.60;;;;;;6227305;27;81271;-63
2021/06/10 13:51:08;;;;;;;28.88;8.95;;;25.30;42.10;;;;;;6229341;27;80563;-64
2021/06/10 13:54:09;;;;;;;27.75;8.35;;;25.30;41.80;;;;;;6227462;27;80683;-63
2021/06/10 13:57:12;;;;;;;18.50;6.88;;;25.30;41.40;;;;;;6224359;27;80723;-63
2021/06/10 14:00:12;;;;;;;18.50;5.95;;;25.30;41.00;;;;;;6232036;27;80732;-63
2021/06/10 14:03:13;;;;;;;19.40;5.75;;;25.30;41.00;;;;;;6230217;27;81700;-64
2021/06/10 14:06:13;;;;;;;12.43;4.55;;;25.30;41.10;;;;;;6224934;27;80521;-64
2021/06/10 14:09:14;;;;;;;11.60;5.22;;;25.30;41.30;;;;;;6232547;27;81431;-64
2021/06/10 14:12:14;;;;;;;10.00;4.22;;;25.30;41.40;;;;;;6222874;27;80593;-64
2021/06/10 14:15:15;;;;;;;9.00;3.95;;;25.30;41.70;;;;;;6228872;28;80860;-65
2021/06/10 14:18:15;;;;;;;7.85;3.70;;;25.30;41.50;;;;;;6229625;27;80783;-65
2021/06/10 14:21:17;;;;;;;8.98;3.70;;;25.30;41.80;;;;;;6230479;27;82964;-65
2021/06/10 14:24:18;;;;;;;7.78;3.42;;;25.30;41.70;;;;;;6232096;27;80543;-63
2021/06/10 14:27:19;;;;;;;10.10;3.63;;;25.30;42.10;;;;;;6231860;28;80726;-63
2021/06/10 14:33:24;;;;;;;5.38;3.13;;;25.30;43.20;;;;;;6219713;27;81226;-63
2021/06/10 14:36:24;;;;;;;8.98;3.70;;;25.40;42.40;;;;;;6234460;27;80691;-64
2021/06/10 14:39:25;;;;;;;6.03;3.03;;;25.40;42.50;;;;;;6235085;27;80920;-64
2021/06/10 14:42:25;;;;;;;9.25;3.58;;;25.30;42.30;;;;;;6238023;27;81552;-64
2021/06/10 14:45:27;;;;;;;5.35;3.63;;;25.30;42.40;;;;;;6233227;27;81414;-64
2021/06/10 14:48:28;;;;;;;4.18;3.50;;;25.30;42.50;;;;;;6232558;27;83347;-64
2021/06/10 14:51:28;;;;;;;7.47;3.45;;;25.30;42.70;;;;;;6232861;27;80186;-64
2021/06/10 14:54:29;;;;;;;6.20;3.83;;;25.30;42.60;;;;;;6234128;27;82908;-63
2021/06/10 14:57:29;;;;;;;5.88;4.28;;;25.30;43.10;;;;;;6230353;27;80644;-64
2021/06/10 15:00:30;;;;;;;7.88;4.40;;;25.30;43.00;;;;;;6232955;27;80927;-64
2021/06/10 15:03:30;;;;;;;6.47;4.60;;;25.30;42.90;;;;;;6233684;27;80464;-64
2021/06/10 15:06:31;;;;;;;5.32;4.80;;;25.30;43.30;;;;;;6238317;27;80653;-64
2021/06/10 15:09:32;;;;;;;6.25;4.40;;;25.30;43.30;;;;;;6232323;27;80286;-65
2021/06/10 15:12:32;;;;;;;10.73;4.93;;;25.30;43.50;;;;;;6240207;27;84271;-64
2021/06/10 15:15:33;;;;;;;5.88;4.22;;;25.30;43.00;;;;;;6234294;27;80516;-63
2021/06/10 15:18:33;;;;;;;5.25;4.30;;;25.30;43.10;;;;;;6235315;27;80822;-65
2021/06/10 15:21:34;;;;;;;9.40;4.38;;;25.30;43.00;;;;;;6232345;27;80525;-65
2021/06/10 15:24:34;;;;;;;12.38;4.65;;;25.30;43.90;;;;;;6226116;27;80292;-63
2021/06/10 15:27:35;;;;;;;7.63;4.40;;;25.20;43.50;;;;;;6233452;27;80643;-61
2021/06/10 15:30:35;;;;;;;9.05;4.32;;;25.20;43.40;;;;;;6232031;27;80644;-67
2021/06/10 15:33:36;;;;;;;7.43;4.68;;;25.30;43.70;;;;;;6231802;27;81229;-65
2021/06/10 15:36:36;;;;;;;7.40;4.28;;;25.30;43.60;;;;;;6233459;27;90318;-64
2021/06/10 15:39:37;;;;;;;13.88;4.80;;;25.30;43.40;;;;;;6235286;27;80514;-64